首页
METAR-TAF:

METAR-TAF

机场 :

喀布尔, 阿富汗

哈米德·卡尔扎伊国际机场

纬度: 34-38N, 经度: 069-12E, 海拔: 1789米

当前天气观测

该预报发布于27分钟前的02:50 UTC
风速7节,风向北转西北
温度 -3°C
湿度 39%
气压 1026 hPa
能見度: 7000

METAR: OAKB 200250Z 33007KT 7000 NSC M03/M15 Q1026 NOSIG RMK A3030 WHT WHT

时间: 07:47 (03:17 UTC)

预报

该预报发布于4小时和12分钟前的23:05 UTC
预报有效从20日的 00点(UTC)到 20日的 24点(UTC)
风速2节,风向多变
能見度: 3500
几率 30% :
短暂存在
从 20日的 02点(UTC)到 20日的 05点(UTC)
能見度: 1500
成为
从 20日的 07点(UTC)到 20日的 09点(UTC)
能見度: 8000
成为
从 20日的 13点(UTC)到 20日的 15点(UTC)
能見度: 2500
几率 40%
从 20日的 16点(UTC)到 20日的 19点(UTC)
能見度: 1400

TAF: OAKB 192305Z 2000/2024 VRB02KT 3500 FU NSC PROB30 TEMPO 2002/2005 1500 BECMG 2007/2009 8000 NSW BECMG 2013/2015 2500 FU PROB40 2016/2019 1400

超过4000个机场的气象观测和天气预报(METAR&TAF报告)。

可查询的气象台以黄色和红色小点在地图上表示。

将鼠标移到小点上方,可查看气象台名称。

然后点击查看天气观测和预报。

如需切换地图:点击带黑十字的绿色按钮放大地图;点击带横线的绿色按钮缩小地图;或者点击绿色箭头查看邻近地区的地图。


METAR-TAF: